Time;durP1;ratioP1;P1;durP2;ratioP2;P2;SDS_P1;SDS_P2;PMS_P1;PMS_P2;Temp;Humidity;BMP_temperature;BMP_pressure;BME280_temperature;BME280_humidity;BME280_pressure;Samples;Min_cycle;Max_cycle;Signal;HPM_P1;HPM_P2
2022/06/28 00:00:44;;;;;;;13.07;7.60;;;;;;;;;;5031155;28;20408;-55
2022/06/28 00:03:10;;;;;;;8.67;7.47;;;;;;;;;;5031377;28;20443;-56
2022/06/28 00:05:36;;;;;;;9.33;7.40;;;;;;;;;;5031443;28;20478;-55
2022/06/28 00:08:02;;;;;;;9.40;8.50;;;;;;;;;;5031452;28;20482;-54
2022/06/28 00:10:28;;;;;;;14.37;7.90;;;;;;;;;;5031122;28;20764;-55
2022/06/28 00:12:54;;;;;;;12.50;7.40;;;;;;;;;;5031384;28;20919;-55
2022/06/28 00:18:22;;;;;;;7.80;7.10;;;;;;;;;;5009745;28;20447;-54
2022/06/28 00:20:48;;;;;;;8.63;7.83;;;;;;;;;;5030186;28;20758;-55
2022/06/28 00:23:14;;;;;;;11.43;7.40;;;;;;;;;;5034994;28;20549;-54
2022/06/28 00:25:40;;;;;;;8.70;7.90;;;;;;;;;;5034866;28;20415;-54
2022/06/28 00:28:06;;;;;;;8.43;7.43;;;;;;;;;;5034884;28;20494;-54
2022/06/28 00:30:32;;;;;;;9.60;7.70;;;;;;;;;;5034624;28;20403;-55
2022/06/28 00:32:58;;;;;;;8.20;7.40;;;;;;;;;;5034452;28;20454;-54
2022/06/28 00:35:24;;;;;;;8.73;7.83;;;;;;;;;;5034758;28;20453;-54
2022/06/28 00:37:50;;;;;;;10.47;8.10;;;;;;;;;;5034669;28;20446;-54
2022/06/28 00:40:16;;;;;;;11.67;7.33;;;;;;;;;;5034910;28;20736;-55
2022/06/28 00:42:42;;;;;;;9.07;8.17;;;;;;;;;;5034522;28;20428;-56
2022/06/28 00:45:08;;;;;;;10.10;7.83;;;;;;;;;;5034609;28;20414;-53
2022/06/28 00:47:35;;;;;;;12.00;8.73;;;;;;;;;;5034489;28;20433;-56
2022/06/28 00:50:02;;;;;;;14.13;7.80;;;;;;;;;;5034412;28;20900;-56
2022/06/28 00:52:28;;;;;;;12.23;8.80;;;;;;;;;;5034024;28;20434;-54
2022/06/28 00:54:54;;;;;;;16.73;8.47;;;;;;;;;;5034400;28;20395;-55
2022/06/28 00:57:21;;;;;;;11.47;9.50;;;;;;;;;;5034388;28;20445;-54
2022/06/28 00:59:47;;;;;;;15.90;9.67;;;;;;;;;;5034233;28;20394;-54
2022/06/28 01:02:13;;;;;;;14.07;10.63;;;;;;;;;;5033517;28;20431;-55
2022/06/28 01:04:40;;;;;;;11.00;8.70;;;;;;;;;;5033584;28;20429;-56
2022/06/28 01:07:06;;;;;;;20.27;10.33;;;;;;;;;;5033993;28;20483;-56
2022/06/28 01:09:32;;;;;;;12.73;8.97;;;;;;;;;;5034190;28;20478;-56
2022/06/28 01:11:58;;;;;;;12.33;9.73;;;;;;;;;;5033805;28;20416;-54
2022/06/28 01:14:24;;;;;;;16.57;10.17;;;;;;;;;;5033903;28;20521;-56
2022/06/28 01:16:51;;;;;;;11.70;9.30;;;;;;;;;;5033926;28;20403;-56
2022/06/28 01:19:16;;;;;;;15.93;10.17;;;;;;;;;;5033917;28;20890;-55
2022/06/28 01:21:43;;;;;;;16.40;10.90;;;;;;;;;;5033668;28;20469;-56
2022/06/28 01:24:09;;;;;;;13.93;10.50;;;;;;;;;;5034073;28;20494;-55
2022/06/28 01:26:35;;;;;;;17.10;10.97;;;;;;;;;;5034083;28;20430;-56
2022/06/28 01:29:01;;;;;;;21.80;11.00;;;;;;;;;;5033783;28;20429;-55
2022/06/28 01:31:27;;;;;;;13.70;9.80;;;;;;;;;;5032627;28;20894;-54
2022/06/28 01:33:54;;;;;;;13.17;10.53;;;;;;;;;;5033548;28;20978;-56
2022/06/28 01:36:20;;;;;;;17.40;10.40;;;;;;;;;;5033614;28;20408;-55
2022/06/28 01:38:46;;;;;;;13.20;10.93;;;;;;;;;;5033615;28;20410;-54
2022/06/28 01:41:33;;;;;;;14.63;9.93;;;;;;;;;;5033258;28;21017;-56
2022/06/28 01:43:59;;;;;;;15.43;9.97;;;;;;;;;;5033662;28;20414;-54
2022/06/28 01:46:26;;;;;;;20.23;11.00;;;;;;;;;;5033364;28;20407;-54
2022/06/28 01:48:54;;;;;;;23.13;11.30;;;;;;;;;;5033374;28;20395;-54
2022/06/28 01:51:20;;;;;;;15.67;10.63;;;;;;;;;;5033039;28;20423;-54
2022/06/28 01:53:46;;;;;;;13.07;10.40;;;;;;;;;;5033982;28;20451;-56
2022/06/28 01:56:12;;;;;;;18.00;9.50;;;;;;;;;;5033252;28;20417;-56
2022/06/28 01:58:39;;;;;;;17.33;9.20;;;;;;;;;;5033159;28;20762;-56
2022/06/28 02:01:05;;;;;;;12.40;9.43;;;;;;;;;;5033181;28;20763;-56
2022/06/28 02:03:31;;;;;;;15.33;10.07;;;;;;;;;;5033116;28;20418;-56
2022/06/28 02:05:57;;;;;;;11.73;10.47;;;;;;;;;;5033095;28;20402;-56
2022/06/28 02:08:23;;;;;;;14.00;10.30;;;;;;;;;;5033034;28;20447;-56
2022/06/28 02:10:49;;;;;;;19.53;10.70;;;;;;;;;;5032732;28;20407;-56
2022/06/28 02:13:15;;;;;;;20.00;10.00;;;;;;;;;;5032779;28;20971;-55
2022/06/28 02:15:41;;;;;;;17.07;10.57;;;;;;;;;;5032736;28;20407;-56
2022/06/28 02:18:07;;;;;;;14.60;10.07;;;;;;;;;;5033031;28;20414;-57
2022/06/28 02:20:33;;;;;;;15.00;9.57;;;;;;;;;;5032537;28;20399;-56
2022/06/28 02:22:59;;;;;;;14.57;12.03;;;;;;;;;;5032683;28;20948;-56
2022/06/28 02:25:25;;;;;;;13.67;10.30;;;;;;;;;;5032695;28;20407;-56
2022/06/28 02:27:51;;;;;;;14.23;9.93;;;;;;;;;;5032657;28;20408;-56
2022/06/28 02:30:18;;;;;;;15.10;10.23;;;;;;;;;;5032736;28;20796;-56
2022/06/28 02:32:44;;;;;;;15.27;10.23;;;;;;;;;;5032447;28;20465;-55
2022/06/28 02:40:39;;;;;;;12.60;10.27;;;;;;;;;;5032177;28;20398;-55
2022/06/28 02:43:05;;;;;;;12.60;10.13;;;;;;;;;;5032205;28;20436;-56
2022/06/28 02:45:32;;;;;;;16.40;10.67;;;;;;;;;;5032343;28;20493;-55
2022/06/28 02:47:58;;;;;;;17.23;10.20;;;;;;;;;;5032301;28;20411;-55
2022/06/28 02:50:24;;;;;;;11.30;10.10;;;;;;;;;;5031960;28;20916;-55
2022/06/28 02:52:50;;;;;;;11.50;10.30;;;;;;;;;;5032083;28;20544;-55
2022/06/28 02:55:16;;;;;;;12.10;9.80;;;;;;;;;;5032160;28;20527;-56
2022/06/28 02:57:42;;;;;;;16.10;9.90;;;;;;;;;;5032190;28;20404;-56
2022/06/28 03:00:10;;;;;;;13.30;11.17;;;;;;;;;;5031888;28;20871;-56
2022/06/28 03:02:36;;;;;;;11.23;9.73;;;;;;;;;;5031978;28;20450;-56
2022/06/28 03:05:06;;;;;;;11.27;8.77;;;;;;;;;;5032431;28;20407;-57
2022/06/28 03:07:35;;;;;;;15.43;11.13;;;;;;;;;;5032071;28;20827;-56
2022/06/28 03:10:01;;;;;;;10.83;9.60;;;;;;;;;;5031835;28;20497;-56
2022/06/28 03:12:27;;;;;;;14.43;10.00;;;;;;;;;;5031632;28;20440;-56
2022/06/28 03:14:53;;;;;;;14.30;9.60;;;;;;;;;;5031889;28;20405;-56
2022/06/28 03:17:19;;;;;;;16.43;11.13;;;;;;;;;;5031898;28;20971;-56
2022/06/28 03:19:45;;;;;;;13.97;10.30;;;;;;;;;;5031824;28;20399;-56
2022/06/28 03:22:11;;;;;;;11.20;9.73;;;;;;;;;;5031604;28;20496;-56
2022/06/28 03:24:37;;;;;;;16.70;11.30;;;;;;;;;;5031664;28;20421;-56
2022/06/28 03:27:03;;;;;;;11.70;9.63;;;;;;;;;;5031805;28;20412;-56
2022/06/28 03:29:29;;;;;;;13.80;11.27;;;;;;;;;;5031752;28;20411;-56
2022/06/28 03:31:55;;;;;;;17.30;10.63;;;;;;;;;;5031038;28;20491;-56
2022/06/28 03:34:21;;;;;;;16.23;9.40;;;;;;;;;;5031708;28;20454;-55
2022/06/28 03:36:47;;;;;;;13.60;10.83;;;;;;;;;;5031872;28;20425;-56
2022/06/28 03:39:14;;;;;;;14.40;9.83;;;;;;;;;;5031682;28;20405;-56
2022/06/28 03:41:40;;;;;;;11.93;8.80;;;;;;;;;;5031443;28;20943;-55
2022/06/28 03:44:06;;;;;;;12.40;11.10;;;;;;;;;;5031565;28;20406;-56
2022/06/28 03:46:32;;;;;;;11.50;9.83;;;;;;;;;;5031624;28;20411;-56
2022/06/28 03:48:58;;;;;;;18.50;10.80;;;;;;;;;;5031759;28;20493;-56
2022/06/28 03:51:24;;;;;;;16.33;10.90;;;;;;;;;;5031505;28;20422;-56
2022/06/28 03:53:50;;;;;;;14.27;10.23;;;;;;;;;;5032790;28;20456;-56
2022/06/28 03:56:16;;;;;;;15.60;11.20;;;;;;;;;;5035485;28;20500;-55
2022/06/28 03:58:42;;;;;;;13.73;10.50;;;;;;;;;;5035301;28;20767;-56
2022/06/28 04:01:08;;;;;;;12.83;11.00;;;;;;;;;;5034969;28;20399;-55
2022/06/28 04:03:34;;;;;;;16.20;11.70;;;;;;;;;;5035460;28;20432;-56
2022/06/28 04:06:01;;;;;;;14.67;11.53;;;;;;;;;;5035316;28;20410;-56
2022/06/28 04:08:27;;;;;;;14.40;12.07;;;;;;;;;;5035307;28;20407;-56
2022/06/28 04:11:13;;;;;;;17.77;11.00;;;;;;;;;;5034935;28;20414;-56
2022/06/28 04:13:39;;;;;;;11.97;9.90;;;;;;;;;;5034974;28;20473;-56
2022/06/28 04:16:05;;;;;;;15.00;12.10;;;;;;;;;;5035101;28;20531;-55
2022/06/28 04:18:31;;;;;;;15.13;11.27;;;;;;;;;;5035139;28;20808;-56
2022/06/28 04:20:58;;;;;;;14.07;10.20;;;;;;;;;;5034657;28;20416;-57
2022/06/28 04:23:24;;;;;;;15.10;10.77;;;;;;;;;;5035059;28;20410;-56
2022/06/28 04:25:50;;;;;;;13.90;11.07;;;;;;;;;;5034883;28;20446;-56
2022/06/28 04:28:16;;;;;;;12.57;10.90;;;;;;;;;;5035063;28;20449;-56
2022/06/28 04:30:42;;;;;;;13.00;10.40;;;;;;;;;;5034847;28;20414;-57
2022/06/28 04:33:08;;;;;;;12.00;10.80;;;;;;;;;;5034319;28;20972;-57
2022/06/28 04:35:34;;;;;;;11.27;10.07;;;;;;;;;;5034806;28;20394;-56
2022/06/28 04:38:01;;;;;;;11.40;10.20;;;;;;;;;;5034702;28;20378;-56
2022/06/28 04:40:27;;;;;;;11.53;10.27;;;;;;;;;;5034447;28;20431;-56
2022/06/28 04:42:53;;;;;;;10.47;9.47;;;;;;;;;;5034741;28;20458;-57
2022/06/28 04:45:19;;;;;;;13.03;10.33;;;;;;;;;;5034682;28;20429;-56
2022/06/28 04:47:45;;;;;;;12.50;9.40;;;;;;;;;;5034609;28;20468;-57
2022/06/28 04:50:11;;;;;;;14.43;10.17;;;;;;;;;;5034226;28;20758;-56
2022/06/28 04:52:37;;;;;;;14.80;10.00;;;;;;;;;;5034247;28;20447;-56
2022/06/28 04:55:06;;;;;;;11.37;10.10;;;;;;;;;;5034571;28;20412;-57
2022/06/28 04:57:32;;;;;;;12.47;10.90;;;;;;;;;;5034408;28;20555;-56
2022/06/28 04:59:58;;;;;;;10.67;9.20;;;;;;;;;;5034282;28;20487;-57
2022/06/28 05:02:25;;;;;;;13.10;9.70;;;;;;;;;;5033946;28;20481;-57
2022/06/28 05:04:51;;;;;;;11.80;9.90;;;;;;;;;;5033283;28;20379;-57
2022/06/28 05:07:17;;;;;;;14.63;9.80;;;;;;;;;;5033982;28;20408;-57
2022/06/28 05:09:43;;;;;;;16.63;11.17;;;;;;;;;;5034280;28;20807;-56
2022/06/28 05:12:09;;;;;;;12.87;10.07;;;;;;;;;;5033772;28;20432;-57
2022/06/28 05:14:36;;;;;;;11.90;10.00;;;;;;;;;;5034081;28;20919;-57
2022/06/28 05:17:02;;;;;;;11.93;9.33;;;;;;;;;;5033993;28;20400;-56
2022/06/28 05:19:30;;;;;;;14.10;9.67;;;;;;;;;;5033845;28;20408;-57
2022/06/28 05:21:56;;;;;;;12.10;10.73;;;;;;;;;;5033677;28;20432;-55
2022/06/28 05:24:22;;;;;;;12.33;9.67;;;;;;;;;;5034093;28;20489;-57
2022/06/28 05:26:48;;;;;;;10.53;9.17;;;;;;;;;;5033959;28;20397;-56
2022/06/28 05:29:14;;;;;;;12.83;11.23;;;;;;;;;;5033671;28;20495;-57
2022/06/28 05:31:40;;;;;;;10.70;8.80;;;;;;;;;;5033144;28;20429;-56
2022/06/28 05:34:06;;;;;;;13.60;9.67;;;;;;;;;;5033671;28;20514;-56
2022/06/28 05:36:32;;;;;;;10.53;9.43;;;;;;;;;;5033697;28;20401;-56
2022/06/28 05:38:58;;;;;;;12.03;8.70;;;;;;;;;;5033693;28;20743;-56
2022/06/28 05:41:24;;;;;;;9.90;8.70;;;;;;;;;;5033210;28;20426;-57
2022/06/28 05:43:50;;;;;;;9.83;8.93;;;;;;;;;;5033607;28;20402;-56
2022/06/28 05:46:16;;;;;;;16.93;9.93;;;;;;;;;;5033923;28;20424;-57
2022/06/28 05:48:42;;;;;;;10.80;9.03;;;;;;;;;;5033509;28;20496;-57
2022/06/28 05:51:08;;;;;;;13.17;9.10;;;;;;;;;;5033037;28;20420;-56
2022/06/28 05:53:34;;;;;;;9.90;8.47;;;;;;;;;;5033424;28;20478;-55
2022/06/28 05:56:00;;;;;;;10.43;8.53;;;;;;;;;;5033231;28;20767;-57
2022/06/28 05:58:26;;;;;;;9.40;8.40;;;;;;;;;;5033304;28;20398;-57
2022/06/28 06:00:52;;;;;;;9.30;8.00;;;;;;;;;;5032809;28;20422;-57
2022/06/28 06:03:18;;;;;;;8.83;7.93;;;;;;;;;;5032959;28;20458;-56
2022/06/28 06:05:44;;;;;;;8.80;7.60;;;;;;;;;;5033340;28;20960;-57
2022/06/28 06:08:10;;;;;;;13.73;6.57;;;;;;;;;;5033080;28;20378;-57
2022/06/28 06:10:36;;;;;;;9.33;6.87;;;;;;;;;;5032718;28;20438;-56
2022/06/28 06:13:02;;;;;;;8.07;5.97;;;;;;;;;;5032842;28;20547;-57
2022/06/28 06:15:28;;;;;;;7.03;6.20;;;;;;;;;;5032815;28;20750;-57
2022/06/28 06:17:54;;;;;;;8.33;7.50;;;;;;;;;;5032775;28;20402;-57
2022/06/28 06:20:20;;;;;;;9.20;6.90;;;;;;;;;;5032597;28;20958;-57
2022/06/28 06:22:47;;;;;;;7.43;5.33;;;;;;;;;;5032537;28;20412;-57
2022/06/28 06:25:13;;;;;;;5.87;5.30;;;;;;;;;;5031480;28;20389;-57
2022/06/28 06:27:39;;;;;;;7.07;5.37;;;;;;;;;;5032155;28;20396;-56
2022/06/28 06:30:06;;;;;;;6.63;5.43;;;;;;;;;;5031908;28;20504;-57
2022/06/28 06:32:33;;;;;;;4.37;4.00;;;;;;;;;;5032371;28;20400;-57
2022/06/28 06:34:59;;;;;;;5.73;5.13;;;;;;;;;;5032190;28;20409;-58
2022/06/28 06:37:25;;;;;;;7.63;4.20;;;;;;;;;;5032450;28;20429;-57
2022/06/28 06:39:51;;;;;;;4.03;3.67;;;;;;;;;;5031539;28;20521;-57
2022/06/28 06:42:17;;;;;;;3.60;3.30;;;;;;;;;;5031554;28;20442;-57
2022/06/28 06:44:43;;;;;;;3.23;2.90;;;;;;;;;;5031950;28;20421;-57
2022/06/28 06:47:09;;;;;;;3.97;3.20;;;;;;;;;;5032148;28;20489;-57
2022/06/28 06:49:35;;;;;;;8.27;3.40;;;;;;;;;;5031972;28;20460;-57
2022/06/28 06:52:01;;;;;;;4.77;3.00;;;;;;;;;;5031329;28;20930;-57
2022/06/28 06:54:27;;;;;;;2.43;2.23;;;;;;;;;;5031725;28;20433;-57
2022/06/28 06:56:53;;;;;;;4.03;2.90;;;;;;;;;;5032019;28;20836;-57
2022/06/28 06:59:19;;;;;;;3.20;2.83;;;;;;;;;;5031903;28;20752;-57
2022/06/28 07:01:45;;;;;;;4.13;3.27;;;;;;;;;;5031636;28;20526;-57
2022/06/28 07:04:12;;;;;;;2.20;2.00;;;;;;;;;;5031856;28;20413;-57
2022/06/28 07:06:38;;;;;;;4.30;2.03;;;;;;;;;;5031940;28;20396;-56
2022/06/28 07:09:04;;;;;;;3.17;2.00;;;;;;;;;;5031248;28;20419;-57
2022/06/28 07:11:30;;;;;;;3.73;2.47;;;;;;;;;;5031978;28;20492;-57
2022/06/28 07:13:56;;;;;;;3.03;2.30;;;;;;;;;;5031550;28;20550;-57
2022/06/28 07:16:22;;;;;;;4.87;2.43;;;;;;;;;;5031749;28;20405;-57
2022/06/28 07:18:48;;;;;;;2.10;1.90;;;;;;;;;;5031514;28;20879;-58
2022/06/28 07:21:14;;;;;;;5.43;2.40;;;;;;;;;;5031519;28;20736;-57
2022/06/28 07:23:41;;;;;;;3.77;2.37;;;;;;;;;;5031460;28;20447;-58
2022/06/28 07:26:07;;;;;;;4.97;2.07;;;;;;;;;;5031734;28;20408;-57
2022/06/28 07:28:33;;;;;;;2.27;2.10;;;;;;;;;;5030907;28;20465;-57
2022/06/28 07:30:59;;;;;;;3.77;1.87;;;;;;;;;;5031254;28;20406;-57
2022/06/28 07:33:25;;;;;;;2.50;2.07;;;;;;;;;;5031225;28;20945;-57
2022/06/28 07:35:51;;;;;;;2.47;2.27;;;;;;;;;;5031713;28;20376;-57
2022/06/28 07:38:17;;;;;;;5.30;2.20;;;;;;;;;;5031280;28;20499;-57
2022/06/28 07:40:43;;;;;;;2.10;1.90;;;;;;;;;;5031561;28;20991;-57
2022/06/28 07:43:09;;;;;;;3.10;1.90;;;;;;;;;;5031430;28;20807;-57
2022/06/28 07:45:36;;;;;;;8.30;2.67;;;;;;;;;;5031580;28;20463;-57
2022/06/28 07:48:06;;;;;;;5.23;2.13;;;;;;;;;;5031254;28;20442;-58
2022/06/28 07:53:17;;;;;;;2.00;1.90;;;;;;;;;;5031883;28;20884;-58
2022/06/28 07:55:43;;;;;;;4.70;2.20;;;;;;;;;;5031622;28;20409;-57
2022/06/28 07:58:09;;;;;;;2.03;1.83;;;;;;;;;;5030923;28;20803;-58
2022/06/28 08:00:35;;;;;;;2.33;2.07;;;;;;;;;;5031195;28;20437;-58
2022/06/28 08:03:01;;;;;;;4.17;2.20;;;;;;;;;;5031039;28;20888;-57
2022/06/28 08:05:27;;;;;;;3.30;1.90;;;;;;;;;;5031433;28;20379;-57
2022/06/28 08:07:53;;;;;;;3.60;2.40;;;;;;;;;;5030969;28;20423;-58
2022/06/28 08:10:19;;;;;;;4.10;1.87;;;;;;;;;;5031511;28;20402;-57
2022/06/28 08:12:45;;;;;;;3.47;1.73;;;;;;;;;;5030855;28;20445;-58
2022/06/28 08:15:11;;;;;;;1.97;1.67;;;;;;;;;;5031289;28;20872;-58
2022/06/28 08:17:37;;;;;;;4.63;2.40;;;;;;;;;;5030797;28;20955;-58
2022/06/28 08:20:04;;;;;;;2.00;1.80;;;;;;;;;;5031188;28;20408;-59
2022/06/28 08:22:30;;;;;;;3.07;1.60;;;;;;;;;;5030883;28;20812;-58
2022/06/28 08:24:55;;;;;;;2.07;1.80;;;;;;;;;;5030720;28;20905;-58
2022/06/28 08:27:21;;;;;;;2.27;2.07;;;;;;;;;;5030787;28;20536;-57
2022/06/28 08:29:47;;;;;;;2.47;1.60;;;;;;;;;;5030682;28;20439;-59
2022/06/28 08:32:16;;;;;;;1.43;1.33;;;;;;;;;;5030858;28;20441;-58
2022/06/28 08:34:42;;;;;;;2.43;1.50;;;;;;;;;;5031481;28;20976;-59
2022/06/28 08:37:08;;;;;;;4.53;1.47;;;;;;;;;;5030828;28;20481;-60
2022/06/28 08:39:34;;;;;;;3.53;1.53;;;;;;;;;;5031358;28;20410;-59
2022/06/28 08:42:04;;;;;;;1.77;1.30;;;;;;;;;;5034156;28;20822;-59
2022/06/28 08:44:34;;;;;;;4.27;1.60;;;;;;;;;;5034276;28;20534;-60
2022/06/28 08:47:01;;;;;;;3.77;1.70;;;;;;;;;;5033579;28;20590;-60
2022/06/28 08:49:36;;;;;;;2.97;1.37;;;;;;;;;;5033668;28;20426;-56
2022/06/28 08:52:03;;;;;;;1.90;1.67;;;;;;;;;;5034335;28;20426;-55
2022/06/28 08:54:29;;;;;;;3.47;1.33;;;;;;;;;;5034033;28;20552;-56
2022/06/28 08:56:55;;;;;;;4.50;1.20;;;;;;;;;;5034806;28;20509;-55
2022/06/28 08:59:22;;;;;;;5.53;1.30;;;;;;;;;;5034252;28;20482;-55
2022/06/28 09:01:49;;;;;;;2.60;1.23;;;;;;;;;;5033927;28;20456;-56
2022/06/28 09:04:15;;;;;;;1.53;1.20;;;;;;;;;;5034036;28;20441;-55
2022/06/28 09:06:41;;;;;;;2.27;1.40;;;;;;;;;;5034603;28;20448;-56
2022/06/28 09:09:07;;;;;;;4.53;2.30;;;;;;;;;;5033865;28;20418;-54
2022/06/28 09:11:40;;;;;;;3.27;1.57;;;;;;;;;;5034801;28;20920;-58
2022/06/28 09:14:20;;;;;;;3.77;1.40;;;;;;;;;;5032839;28;20516;-58
2022/06/28 09:16:46;;;;;;;3.17;1.40;;;;;;;;;;5033933;28;20412;-58
2022/06/28 09:19:12;;;;;;;3.73;1.40;;;;;;;;;;5033731;28;20854;-58
2022/06/28 09:21:47;;;;;;;1.53;1.17;;;;;;;;;;5033910;28;20438;-58
2022/06/28 09:24:25;;;;;;;2.83;1.30;;;;;;;;;;5033884;28;20766;-58
2022/06/28 09:26:54;;;;;;;1.60;1.10;;;;;;;;;;5033352;28;20510;-58
2022/06/28 09:29:20;;;;;;;2.40;1.17;;;;;;;;;;5033538;28;20398;-58
2022/06/28 09:31:46;;;;;;;2.70;1.20;;;;;;;;;;5033282;28;20465;-58
2022/06/28 09:34:13;;;;;;;1.67;1.03;;;;;;;;;;5034006;28;21024;-54
2022/06/28 09:36:41;;;;;;;2.10;1.30;;;;;;;;;;5033952;28;20398;-56
2022/06/28 09:39:13;;;;;;;5.10;1.20;;;;;;;;;;5033630;28;20422;-56
2022/06/28 09:41:42;;;;;;;2.47;1.20;;;;;;;;;;5033516;28;20414;-57
2022/06/28 09:44:08;;;;;;;1.77;1.23;;;;;;;;;;5033672;28;20928;-55
2022/06/28 09:46:34;;;;;;;2.30;1.10;;;;;;;;;;5033585;28;20406;-54
2022/06/28 09:49:05;;;;;;;2.47;1.60;;;;;;;;;;5033883;28;20471;-55
2022/06/28 09:51:31;;;;;;;3.40;1.03;;;;;;;;;;5032607;28;20422;-56
2022/06/28 09:54:02;;;;;;;1.30;0.97;;;;;;;;;;5033127;28;20460;-55
2022/06/28 09:56:28;;;;;;;2.33;1.10;;;;;;;;;;5033311;28;20972;-54
2022/06/28 09:58:54;;;;;;;1.13;1.03;;;;;;;;;;5033116;28;20929;-57
2022/06/28 10:01:21;;;;;;;2.37;1.20;;;;;;;;;;5033104;28;20444;-56
2022/06/28 10:03:50;;;;;;;3.00;1.43;;;;;;;;;;5033393;28;20410;-55
2022/06/28 10:06:18;;;;;;;2.07;1.10;;;;;;;;;;5032923;28;20503;-56
2022/06/28 10:08:45;;;;;;;2.50;1.77;;;;;;;;;;5033364;28;20406;-55
2022/06/28 10:11:12;;;;;;;2.60;1.10;;;;;;;;;;5032670;28;20517;-56
2022/06/28 10:16:45;;;;;;;2.10;1.20;;;;;;;;;;5032784;28;20425;-57
2022/06/28 10:19:12;;;;;;;2.83;1.40;;;;;;;;;;5032717;28;20414;-56
2022/06/28 10:21:45;;;;;;;1.87;1.23;;;;;;;;;;5032752;28;20430;-55
2022/06/28 10:24:12;;;;;;;1.43;1.33;;;;;;;;;;5033810;28;20398;-57
2022/06/28 10:26:38;;;;;;;1.87;1.00;;;;;;;;;;5033148;28;20421;-58
2022/06/28 10:29:09;;;;;;;3.10;1.20;;;;;;;;;;5032357;28;20960;-57
2022/06/28 10:31:36;;;;;;;0.80;0.80;;;;;;;;;;5032043;28;20430;-57
2022/06/28 10:34:04;;;;;;;2.70;1.60;;;;;;;;;;5030944;28;20892;-57
2022/06/28 10:36:31;;;;;;;1.60;1.00;;;;;;;;;;5031937;28;20425;-57
2022/06/28 10:39:06;;;;;;;1.13;1.03;;;;;;;;;;5031873;28;20960;-57
2022/06/28 10:41:42;;;;;;;2.50;1.30;;;;;;;;;;5031970;28;20448;-56
2022/06/28 10:44:12;;;;;;;1.60;1.40;;;;;;;;;;5031680;28;20414;-58
2022/06/28 10:46:39;;;;;;;2.43;1.50;;;;;;;;;;5032044;28;20817;-56
2022/06/28 10:49:08;;;;;;;1.83;1.03;;;;;;;;;;5031620;28;20418;-58
2022/06/28 10:51:35;;;;;;;1.30;1.03;;;;;;;;;;5031779;28;20422;-56
2022/06/28 10:54:09;;;;;;;2.70;2.50;;;;;;;;;;5031718;28;20454;-58
2022/06/28 10:56:38;;;;;;;3.03;1.23;;;;;;;;;;5032070;28;20498;-56
2022/06/28 10:59:06;;;;;;;2.33;1.67;;;;;;;;;;5031655;28;20456;-57
2022/06/28 11:01:41;;;;;;;3.13;2.07;;;;;;;;;;5031407;28;20441;-57
2022/06/28 11:04:09;;;;;;;1.30;0.90;;;;;;;;;;5030934;28;20501;-58
2022/06/28 11:06:58;;;;;;;1.77;1.13;;;;;;;;;;5031912;28;20410;-55
2022/06/28 11:09:28;;;;;;;2.80;2.40;;;;;;;;;;5026340;28;20426;-56
2022/06/28 11:12:13;;;;;;;6.53;1.20;;;;;;;;;;5031543;28;20426;-56
2022/06/28 11:14:50;;;;;;;2.50;1.40;;;;;;;;;;5031418;28;20460;-55
2022/06/28 11:17:39;;;;;;;1.67;1.07;;;;;;;;;;5031584;28;20909;-57
2022/06/28 11:20:13;;;;;;;1.10;0.83;;;;;;;;;;5025858;28;20473;-58
2022/06/28 11:22:47;;;;;;;1.47;1.37;;;;;;;;;;5031771;28;20456;-56
2022/06/28 11:25:15;;;;;;;2.73;1.00;;;;;;;;;;5031496;28;20414;-56
2022/06/28 11:27:58;;;;;;;1.20;1.10;;;;;;;;;;5031617;28;20730;-57
2022/06/28 11:30:27;;;;;;;1.93;1.20;;;;;;;;;;5031400;28;20421;-57
2022/06/28 11:32:55;;;;;;;1.80;1.20;;;;;;;;;;5031236;28;20437;-58
2022/06/28 11:35:23;;;;;;;5.60;1.40;;;;;;;;;;5031631;28;20387;-57
2022/06/28 11:38:03;;;;;;;2.07;0.90;;;;;;;;;;5031224;28;20398;-57
2022/06/28 11:40:38;;;;;;;1.40;1.00;;;;;;;;;;5031430;28;20394;-57
2022/06/28 11:43:06;;;;;;;1.27;0.93;;;;;;;;;;5031028;28;20516;-56
2022/06/28 11:45:58;;;;;;;1.13;0.90;;;;;;;;;;5031371;28;20442;-57
2022/06/28 11:48:31;;;;;;;2.03;1.10;;;;;;;;;;5029368;28;20416;-57
2022/06/28 11:50:58;;;;;;;2.80;0.97;;;;;;;;;;5031152;28;20456;-56
2022/06/28 11:53:24;;;;;;;1.53;1.00;;;;;;;;;;5031193;28;20808;-58
2022/06/28 11:55:51;;;;;;;6.50;1.23;;;;;;;;;;5031433;28;20449;-57
2022/06/28 11:58:20;;;;;;;2.17;1.07;;;;;;;;;;5031106;28;20418;-57
2022/06/28 12:01:05;;;;;;;9.93;1.70;;;;;;;;;;5031222;28;20406;-57
2022/06/28 12:03:31;;;;;;;2.20;1.03;;;;;;;;;;5031216;28;20414;-60
2022/06/28 12:05:58;;;;;;;0.80;0.80;;;;;;;;;;5031127;28;20402;-59
2022/06/28 12:08:42;;;;;;;1.20;0.93;;;;;;;;;;5030898;28;20414;-59
2022/06/28 12:11:08;;;;;;;3.40;1.00;;;;;;;;;;5030915;28;20394;-59
2022/06/28 12:13:34;;;;;;;2.50;1.27;;;;;;;;;;5031069;28;20496;-58
2022/06/28 12:16:00;;;;;;;1.93;1.20;;;;;;;;;;5034371;28;20402;-56
2022/06/28 12:18:26;;;;;;;2.17;1.20;;;;;;;;;;5035426;28;20417;-57
2022/06/28 12:20:58;;;;;;;2.20;1.53;;;;;;;;;;5034217;28;20922;-57
2022/06/28 12:23:24;;;;;;;6.73;1.30;;;;;;;;;;5022735;28;20450;-57
2022/06/28 12:26:00;;;;;;;1.40;1.23;;;;;;;;;;5018090;28;20443;-58
2022/06/28 12:28:26;;;;;;;2.03;1.00;;;;;;;;;;5035416;28;21092;-54
2022/06/28 12:30:52;;;;;;;2.07;1.33;;;;;;;;;;5034973;28;20410;-55
2022/06/28 12:33:18;;;;;;;1.10;1.00;;;;;;;;;;5035085;28;20520;-56
2022/06/28 12:35:44;;;;;;;1.53;0.80;;;;;;;;;;5035149;28;20402;-57
2022/06/28 12:38:10;;;;;;;1.70;1.00;;;;;;;;;;5035750;28;20414;-58
2022/06/28 12:40:36;;;;;;;3.27;1.30;;;;;;;;;;5033911;28;20472;-56
2022/06/28 12:43:02;;;;;;;1.40;1.30;;;;;;;;;;5022642;28;20427;-58
2022/06/28 12:45:28;;;;;;;2.40;1.20;;;;;;;;;;5021475;28;20496;-60
2022/06/28 12:47:54;;;;;;;1.23;1.00;;;;;;;;;;5034384;28;20433;-60
2022/06/28 12:50:20;;;;;;;1.07;0.97;;;;;;;;;;5034158;28;20419;-59
2022/06/28 12:52:46;;;;;;;1.80;1.23;;;;;;;;;;5034260;28;20422;-58
2022/06/28 12:55:12;;;;;;;1.80;1.30;;;;;;;;;;5034112;28;20932;-58
2022/06/28 12:57:39;;;;;;;2.13;1.30;;;;;;;;;;5033884;28;20410;-58
2022/06/28 13:00:10;;;;;;;1.40;1.20;;;;;;;;;;5033646;28;20406;-60
2022/06/28 13:02:35;;;;;;;2.07;1.37;;;;;;;;;;5034135;28;20814;-59
2022/06/28 13:05:02;;;;;;;2.20;1.30;;;;;;;;;;5033980;28;20898;-58
2022/06/28 13:07:27;;;;;;;1.23;1.10;;;;;;;;;;5034095;28;20398;-59
2022/06/28 13:09:53;;;;;;;5.23;1.20;;;;;;;;;;5034011;28;20425;-61
2022/06/28 13:12:19;;;;;;;5.50;1.30;;;;;;;;;;5033562;28;20442;-59
2022/06/28 13:14:45;;;;;;;2.50;1.10;;;;;;;;;;5033848;28;20820;-58
2022/06/28 13:17:11;;;;;;;2.10;1.20;;;;;;;;;;5033612;28;20430;-59
2022/06/28 13:19:37;;;;;;;1.47;1.20;;;;;;;;;;5033976;28;20398;-59
2022/06/28 13:22:03;;;;;;;1.83;1.10;;;;;;;;;;5033347;28;20440;-58
2022/06/28 13:24:29;;;;;;;2.13;1.40;;;;;;;;;;5034033;28;20408;-58
2022/06/28 13:26:55;;;;;;;3.33;1.63;;;;;;;;;;5032523;28;20464;-59
2022/06/28 13:29:22;;;;;;;1.77;1.30;;;;;;;;;;5033646;28;20421;-58
2022/06/28 13:31:48;;;;;;;1.73;1.17;;;;;;;;;;5033564;28;20418;-57
2022/06/28 13:34:16;;;;;;;1.80;1.50;;;;;;;;;;5033458;28;20453;-58
2022/06/28 13:36:42;;;;;;;1.80;1.33;;;;;;;;;;5030542;28;20468;-56
2022/06/28 13:39:08;;;;;;;1.30;1.00;;;;;;;;;;5033413;28;20406;-58
2022/06/28 13:41:34;;;;;;;1.77;1.10;;;;;;;;;;5032869;28;21009;-57
2022/06/28 13:44:00;;;;;;;1.50;1.37;;;;;;;;;;5033271;28;20471;-58
2022/06/28 13:46:26;;;;;;;2.10;1.10;;;;;;;;;;5031990;28;20795;-58
2022/06/28 13:48:52;;;;;;;1.10;0.97;;;;;;;;;;5033494;28;20491;-56
2022/06/28 13:51:18;;;;;;;1.13;0.90;;;;;;;;;;5032673;28;20442;-55
2022/06/28 13:53:44;;;;;;;1.97;1.17;;;;;;;;;;5033386;28;20469;-56
2022/06/28 13:56:10;;;;;;;1.17;1.07;;;;;;;;;;5032907;28;20414;-59
2022/06/28 13:58:36;;;;;;;5.03;1.47;;;;;;;;;;5033123;28;20951;-59
2022/06/28 14:01:02;;;;;;;2.50;1.20;;;;;;;;;;5032763;28;20406;-60
2022/06/28 14:03:29;;;;;;;2.23;1.17;;;;;;;;;;5032781;28;20763;-59
2022/06/28 14:05:55;;;;;;;1.87;1.20;;;;;;;;;;5032867;28;20941;-59
2022/06/28 14:08:21;;;;;;;2.07;1.70;;;;;;;;;;5032779;28;20421;-59
2022/06/28 14:10:48;;;;;;;2.70;1.10;;;;;;;;;;5032708;28;20426;-59
2022/06/28 14:13:14;;;;;;;3.67;1.63;;;;;;;;;;5032838;28;20993;-60
2022/06/28 14:15:40;;;;;;;2.33;1.20;;;;;;;;;;5033144;28;20409;-62
2022/06/28 14:18:06;;;;;;;1.87;1.77;;;;;;;;;;5032759;28;20418;-61
2022/06/28 14:20:32;;;;;;;1.83;1.30;;;;;;;;;;5032918;28;20488;-61
2022/06/28 14:22:58;;;;;;;1.17;1.00;;;;;;;;;;5032652;28;20493;-62
2022/06/28 14:25:24;;;;;;;1.63;1.27;;;;;;;;;;5032607;28;20743;-61
2022/06/28 14:27:50;;;;;;;8.83;1.53;;;;;;;;;;5032124;28;20418;-60
2022/06/28 14:30:17;;;;;;;2.40;2.20;;;;;;;;;;5032192;28;20780;-60
2022/06/28 14:32:44;;;;;;;2.33;1.40;;;;;;;;;;5032558;28;20442;-60
2022/06/28 14:35:11;;;;;;;1.53;1.43;;;;;;;;;;5032470;28;20497;-61
2022/06/28 14:37:37;;;;;;;1.67;1.30;;;;;;;;;;5032079;28;20894;-60
2022/06/28 14:40:04;;;;;;;2.60;1.20;;;;;;;;;;5032242;28;20413;-61
2022/06/28 14:42:30;;;;;;;2.17;1.10;;;;;;;;;;5031923;28;20933;-60
2022/06/28 14:44:56;;;;;;;3.13;1.43;;;;;;;;;;5032503;28;20406;-61
2022/06/28 14:47:22;;;;;;;4.00;1.97;;;;;;;;;;5032076;28;20414;-61
2022/06/28 14:49:48;;;;;;;3.67;1.33;;;;;;;;;;5032114;28;20398;-61